Time;durP1;ratioP1;P1;durP2;ratioP2;P2;SDS_P1;SDS_P2;PMS_P1;PMS_P2;Temp;Humidity;BMP_temperature;BMP_pressure;BME280_temperature;BME280_humidity;BME280_pressure;Samples;Min_cycle;Max_cycle;Signal;HPM_P1;HPM_P2
2022/06/16 00:01:48;;;;;;;0.63;0.30;;;13.30;99.90;;;;;;5045365;28;20078;-70
2022/06/16 00:04:14;;;;;;;1.15;0.50;;;13.30;99.90;;;;;;5039073;28;20022;-71
2022/06/16 00:06:39;;;;;;;0.52;0.20;;;13.20;99.90;;;;;;5047220;28;20033;-70
2022/06/16 00:09:05;;;;;;;1.92;0.40;;;13.20;99.90;;;;;;5044151;28;20068;-70
2022/06/16 00:11:31;;;;;;;0.52;0.20;;;13.20;99.90;;;;;;5017752;28;20033;-70
2022/06/16 00:13:56;;;;;;;1.17;0.47;;;13.20;99.90;;;;;;5035610;28;20031;-70
2022/06/16 00:16:23;;;;;;;0.60;0.20;;;13.10;99.90;;;;;;5049697;28;20520;-70
2022/06/16 00:18:49;;;;;;;0.98;0.30;;;13.10;99.90;;;;;;5042358;28;20086;-71
2022/06/16 00:21:16;;;;;;;0.77;0.30;;;13.00;99.90;;;;;;5052840;28;20021;-70
2022/06/16 00:23:43;;;;;;;0.22;0.20;;;13.00;99.90;;;;;;5051774;28;20069;-71
2022/06/16 00:26:19;;;;;;;0.43;0.20;;;13.00;99.90;;;;;;5046323;28;20032;-70
2022/06/16 00:28:48;;;;;;;0.38;0.20;;;13.00;99.90;;;;;;5052893;28;20029;-70
2022/06/16 00:31:16;;;;;;;0.43;0.20;;;13.00;99.90;;;;;;5042575;28;20056;-71
2022/06/16 00:33:42;;;;;;;0.70;0.40;;;13.10;99.90;;;;;;5044888;28;20025;-71
2022/06/16 00:36:08;;;;;;;0.68;0.20;;;13.00;99.90;;;;;;5040586;28;20043;-71
2022/06/16 00:38:34;;;;;;;1.27;0.38;;;13.10;99.90;;;;;;5044578;28;20044;-71
2022/06/16 00:41:00;;;;;;;0.93;0.50;;;13.10;99.90;;;;;;5053681;28;20020;-71
2022/06/16 00:43:27;;;;;;;0.38;0.20;;;13.00;99.90;;;;;;5053189;28;20048;-71
2022/06/16 00:46:01;;;;;;;0.30;0.20;;;13.00;99.90;;;;;;5044381;28;20486;-70
2022/06/16 00:48:53;;;;;;;0.70;0.25;;;13.00;99.90;;;;;;5043362;28;20044;-70
2022/06/16 00:51:34;;;;;;;0.60;0.20;;;13.00;99.90;;;;;;5045921;28;20037;-71
2022/06/16 00:54:05;;;;;;;0.30;0.20;;;12.90;99.90;;;;;;5038021;28;20128;-71
2022/06/16 00:56:30;;;;;;;0.47;0.20;;;12.80;99.90;;;;;;5038892;28;20025;-70
2022/06/16 00:59:01;;;;;;;0.98;0.30;;;12.80;99.90;;;;;;5041140;28;20025;-71
2022/06/16 01:01:27;;;;;;;0.63;0.30;;;12.70;99.90;;;;;;5045640;28;21627;-71
2022/06/16 01:06:39;;;;;;;0.30;0.20;;;12.70;99.90;;;;;;5039499;28;20064;-71
2022/06/16 01:09:11;;;;;;;0.80;0.30;;;12.70;99.90;;;;;;5048216;28;20033;-71
2022/06/16 01:15:12;;;;;;;0.38;0.20;;;12.70;99.90;;;;;;5045034;28;20040;-70
2022/06/16 01:17:37;;;;;;;1.05;0.30;;;12.70;99.90;;;;;;5042204;28;20057;-71
2022/06/16 01:20:11;;;;;;;0.57;0.20;;;12.70;99.90;;;;;;5044099;28;20048;-71
2022/06/16 01:23:16;;;;;;;0.65;0.30;;;12.70;99.90;;;;;;5041276;28;20083;-70
2022/06/16 01:25:49;;;;;;;0.22;0.20;;;12.70;99.90;;;;;;5046871;28;20381;-71
2022/06/16 01:28:19;;;;;;;0.70;0.30;;;12.70;99.90;;;;;;5045061;28;20065;-71
2022/06/16 01:30:52;;;;;;;0.10;0.10;;;12.70;99.90;;;;;;5043366;28;20034;-70
2022/06/16 01:33:27;;;;;;;1.65;0.77;;;12.70;99.90;;;;;;5049474;28;20060;-70
2022/06/16 01:36:08;;;;;;;0.35;0.20;;;12.70;99.90;;;;;;5046175;28;20055;-70
2022/06/16 01:39:06;;;;;;;0.52;0.20;;;12.70;99.90;;;;;;5040551;28;20091;-71
2022/06/16 01:41:45;;;;;;;0.75;0.38;;;12.70;99.90;;;;;;5049703;28;20068;-70
2022/06/16 01:44:21;;;;;;;0.20;0.20;;;12.60;99.90;;;;;;5048694;28;20047;-70
2022/06/16 01:47:08;;;;;;;0.40;0.20;;;12.60;99.90;;;;;;5042385;28;20059;-71
2022/06/16 01:49:41;;;;;;;0.50;0.22;;;12.60;99.90;;;;;;5039158;28;20032;-71
2022/06/16 01:52:46;;;;;;;0.95;0.45;;;12.60;99.90;;;;;;5046986;28;20021;-71
2022/06/16 01:55:17;;;;;;;0.40;0.20;;;12.60;99.90;;;;;;5039912;28;20059;-71
2022/06/16 01:57:56;;;;;;;0.47;0.20;;;12.60;99.90;;;;;;5045314;28;20037;-71
2022/06/16 02:00:25;;;;;;;0.47;0.28;;;12.50;99.90;;;;;;5041963;28;20119;-71
2022/06/16 02:03:00;;;;;;;0.43;0.20;;;12.60;99.90;;;;;;5047492;28;20174;-70
2022/06/16 02:05:32;;;;;;;0.20;0.20;;;12.50;99.90;;;;;;5040587;28;20081;-70
2022/06/16 02:08:15;;;;;;;0.38;0.20;;;12.50;99.90;;;;;;5060789;28;20040;-70
2022/06/16 02:10:44;;;;;;;0.47;0.20;;;12.50;99.90;;;;;;5042375;28;20041;-70
2022/06/16 02:13:14;;;;;;;1.08;0.45;;;12.50;99.90;;;;;;5045201;28;20017;-70
2022/06/16 02:16:06;;;;;;;0.50;0.20;;;12.50;99.90;;;;;;5035951;28;20021;-70
2022/06/16 02:18:37;;;;;;;0.32;0.20;;;12.50;99.90;;;;;;5049910;28;20033;-69
2022/06/16 02:21:56;;;;;;;0.70;0.30;;;12.50;99.90;;;;;;5041506;28;20057;-70
2022/06/16 02:24:24;;;;;;;1.15;0.30;;;12.50;99.90;;;;;;5032562;28;20742;-70
2022/06/16 02:26:54;;;;;;;0.57;0.20;;;12.50;99.90;;;;;;5039401;28;20032;-70
2022/06/16 02:29:22;;;;;;;0.77;0.30;;;12.50;99.90;;;;;;5042627;28;20497;-71
2022/06/16 02:32:03;;;;;;;0.95;0.30;;;12.50;99.90;;;;;;5048753;28;20044;-70
2022/06/16 02:34:46;;;;;;;0.22;0.20;;;12.40;99.90;;;;;;5042585;28;20044;-69
2022/06/16 02:37:33;;;;;;;0.20;0.20;;;12.40;99.90;;;;;;5043111;28;20065;-70
2022/06/16 02:40:21;;;;;;;0.75;0.30;;;12.30;99.90;;;;;;5040903;28;20036;-70
2022/06/16 02:43:25;;;;;;;0.55;0.20;;;12.30;99.90;;;;;;5046426;28;20033;-70
2022/06/16 02:45:53;;;;;;;0.28;0.20;;;12.30;99.90;;;;;;5045390;28;20068;-70
2022/06/16 02:48:34;;;;;;;0.90;0.30;;;12.30;99.90;;;;;;5042458;28;20051;-70
2022/06/16 02:51:03;;;;;;;0.70;0.30;;;12.30;99.90;;;;;;5041145;28;20052;-70
2022/06/16 02:56:12;;;;;;;0.55;0.50;;;12.30;99.90;;;;;;5040846;28;20585;-70
2022/06/16 02:58:41;;;;;;;0.45;0.20;;;12.30;99.90;;;;;;5034067;28;20021;-70
2022/06/16 03:01:07;;;;;;;0.63;0.30;;;12.30;99.90;;;;;;5046746;28;20698;-70
2022/06/16 03:03:34;;;;;;;0.45;0.20;;;12.30;99.90;;;;;;5047113;28;20113;-70
2022/06/16 03:06:00;;;;;;;0.90;0.30;;;12.30;99.90;;;;;;5044360;28;20044;-70
2022/06/16 03:08:28;;;;;;;1.00;0.40;;;12.30;99.90;;;;;;5045667;28;20052;-70
2022/06/16 03:10:58;;;;;;;0.22;0.20;;;12.30;99.90;;;;;;5041797;28;20021;-70
2022/06/16 03:13:27;;;;;;;0.30;0.20;;;12.30;99.90;;;;;;5047880;28;20030;-70
2022/06/16 03:15:55;;;;;;;0.70;0.32;;;12.30;99.90;;;;;;5033397;28;20030;-70
2022/06/16 03:18:21;;;;;;;0.40;0.20;;;12.30;99.90;;;;;;5042506;28;20040;-70
2022/06/16 03:20:48;;;;;;;1.98;0.60;;;12.30;99.90;;;;;;5043690;28;20297;-69
2022/06/16 03:23:14;;;;;;;0.30;0.20;;;12.30;99.90;;;;;;5042958;28;20556;-70
2022/06/16 03:25:41;;;;;;;0.38;0.20;;;12.20;99.90;;;;;;5021221;28;20029;-70
2022/06/16 03:28:08;;;;;;;0.30;0.20;;;12.20;99.90;;;;;;5042376;28;20520;-70
2022/06/16 03:30:34;;;;;;;0.95;0.52;;;12.10;99.90;;;;;;5042344;28;20040;-70
2022/06/16 03:33:01;;;;;;;0.75;0.65;;;12.10;99.90;;;;;;5047985;28;20048;-69
2022/06/16 03:35:27;;;;;;;0.50;0.20;;;12.00;99.90;;;;;;5046274;28;20036;-70
2022/06/16 03:37:53;;;;;;;1.13;0.47;;;12.00;99.90;;;;;;5039699;28;20080;-70
2022/06/16 03:40:20;;;;;;;0.60;0.35;;;11.80;99.90;;;;;;5041561;28;20038;-70
2022/06/16 03:42:47;;;;;;;0.70;0.43;;;11.80;99.90;;;;;;5044641;28;20036;-71
2022/06/16 03:45:13;;;;;;;1.85;0.40;;;11.80;99.90;;;;;;5047569;28;20033;-71
2022/06/16 03:47:39;;;;;;;0.28;0.20;;;11.70;99.90;;;;;;5047302;28;20045;-71
2022/06/16 03:50:05;;;;;;;0.65;0.30;;;11.70;99.90;;;;;;5027241;28;20025;-71
2022/06/16 03:52:31;;;;;;;0.90;0.35;;;11.60;99.90;;;;;;5039360;28;20075;-71
2022/06/16 03:54:56;;;;;;;0.20;0.20;;;11.70;99.90;;;;;;5045462;28;20041;-70
2022/06/16 03:57:22;;;;;;;0.38;0.22;;;11.70;99.90;;;;;;5046200;28;20043;-70
2022/06/16 03:59:48;;;;;;;0.75;0.38;;;11.70;99.90;;;;;;5046166;28;20027;-70
2022/06/16 04:02:13;;;;;;;0.57;0.30;;;11.80;99.90;;;;;;5042125;28;20035;-71
2022/06/16 04:04:39;;;;;;;0.20;0.20;;;11.80;99.90;;;;;;5047776;28;20049;-70
2022/06/16 04:07:05;;;;;;;0.85;0.40;;;11.90;99.90;;;;;;5033986;28;20041;-71
2022/06/16 04:09:30;;;;;;;0.45;0.20;;;12.00;99.90;;;;;;5035650;28;20029;-71
2022/06/16 04:11:56;;;;;;;0.55;0.30;;;12.10;99.90;;;;;;5037038;28;20044;-70
2022/06/16 04:14:22;;;;;;;0.30;0.20;;;12.30;99.90;;;;;;5027378;28;20040;-71
2022/06/16 04:16:52;;;;;;;0.20;0.20;;;12.40;99.90;;;;;;5056123;28;20025;-71
2022/06/16 04:19:19;;;;;;;0.32;0.20;;;12.50;99.90;;;;;;5043148;28;20631;-71
2022/06/16 04:21:46;;;;;;;0.28;0.20;;;12.70;99.90;;;;;;5041477;28;20026;-70
2022/06/16 04:24:13;;;;;;;0.28;0.20;;;12.70;99.90;;;;;;5036485;28;20029;-70
2022/06/16 04:26:39;;;;;;;0.50;0.20;;;12.90;99.90;;;;;;5026281;28;20354;-69
2022/06/16 04:29:06;;;;;;;0.28;0.20;;;13.00;99.90;;;;;;5035510;28;20105;-70
2022/06/16 04:31:33;;;;;;;0.57;0.30;;;13.10;99.90;;;;;;5033911;28;20339;-69
2022/06/16 04:33:59;;;;;;;0.32;0.20;;;13.30;99.90;;;;;;5043066;28;20040;-70
2022/06/16 04:36:25;;;;;;;0.25;0.20;;;13.30;99.90;;;;;;5031100;28;20022;-69
2022/06/16 04:38:53;;;;;;;0.40;0.20;;;13.40;99.90;;;;;;5034005;28;20029;-69
2022/06/16 04:41:19;;;;;;;0.55;0.20;;;13.50;99.90;;;;;;5036811;28;20449;-70
2022/06/16 04:43:44;;;;;;;0.75;0.40;;;13.60;99.90;;;;;;5040106;28;20052;-69
2022/06/16 04:46:13;;;;;;;4.63;0.52;;;13.60;99.90;;;;;;5040985;28;20080;-70
2022/06/16 04:48:39;;;;;;;0.70;0.30;;;13.70;99.90;;;;;;5049600;28;20044;-70
2022/06/16 04:51:04;;;;;;;0.25;0.20;;;13.70;99.90;;;;;;5038136;28;20618;-70
2022/06/16 04:53:31;;;;;;;0.17;0.17;;;13.70;99.90;;;;;;5040455;28;20036;-70
2022/06/16 04:55:58;;;;;;;0.43;0.20;;;13.80;99.90;;;;;;5038403;28;20091;-70
2022/06/16 04:58:26;;;;;;;0.20;0.20;;;13.90;99.90;;;;;;5045761;28;20021;-70
2022/06/16 05:00:52;;;;;;;0.65;0.35;;;14.00;99.90;;;;;;5045898;28;20040;-70
2022/06/16 05:03:20;;;;;;;1.00;0.40;;;14.10;99.90;;;;;;5050548;28;20651;-69
2022/06/16 05:05:47;;;;;;;0.22;0.20;;;14.20;99.90;;;;;;5043226;28;20036;-70
2022/06/16 05:08:14;;;;;;;0.25;0.20;;;14.20;99.90;;;;;;5042596;28;20052;-69
2022/06/16 05:10:39;;;;;;;0.25;0.20;;;14.30;99.90;;;;;;5038877;28;20038;-70
2022/06/16 05:13:05;;;;;;;0.75;0.40;;;14.40;99.90;;;;;;5048509;28;20108;-70
2022/06/16 05:15:31;;;;;;;0.40;0.30;;;14.50;99.90;;;;;;5032340;28;20029;-69
2022/06/16 05:17:57;;;;;;;0.60;0.30;;;14.50;99.90;;;;;;5043986;28;20040;-69
2022/06/16 05:20:22;;;;;;;0.65;0.30;;;14.50;99.90;;;;;;5041618;28;20089;-69
2022/06/16 05:22:48;;;;;;;0.52;0.30;;;14.60;99.90;;;;;;5049551;28;20041;-70
2022/06/16 05:25:14;;;;;;;3.55;0.30;;;14.60;99.90;;;;;;5045487;28;20542;-71
2022/06/16 05:27:40;;;;;;;0.88;0.35;;;14.70;99.90;;;;;;5048033;28;20056;-70
2022/06/16 05:30:07;;;;;;;1.63;0.57;;;14.70;99.90;;;;;;5045155;28;20033;-71
2022/06/16 05:32:32;;;;;;;0.50;0.28;;;14.70;99.90;;;;;;5044675;28;20049;-70
2022/06/16 05:34:58;;;;;;;1.10;0.40;;;14.70;99.90;;;;;;5043340;28;20115;-70
2022/06/16 05:37:24;;;;;;;0.45;0.20;;;14.80;99.90;;;;;;5037359;28;20029;-68
2022/06/16 05:39:49;;;;;;;0.35;0.20;;;14.90;99.90;;;;;;5045994;28;20064;-68
2022/06/16 05:42:17;;;;;;;0.38;0.20;;;14.90;99.90;;;;;;5043127;28;20056;-68
2022/06/16 05:44:43;;;;;;;1.15;0.55;;;15.00;99.90;;;;;;5045626;28;20033;-70
2022/06/16 05:47:09;;;;;;;0.52;0.25;;;15.10;99.90;;;;;;5027298;28;20036;-70
2022/06/16 05:49:38;;;;;;;0.22;0.13;;;15.00;99.90;;;;;;5042710;28;20044;-69
2022/06/16 05:52:12;;;;;;;0.17;0.10;;;15.10;99.90;;;;;;5039294;28;20029;-70
2022/06/16 05:54:38;;;;;;;0.40;0.17;;;15.10;99.90;;;;;;5048169;28;20151;-70
2022/06/16 05:57:04;;;;;;;0.10;0.10;;;15.30;99.90;;;;;;5048389;28;20040;-70
2022/06/16 05:59:30;;;;;;;0.40;0.20;;;15.30;99.90;;;;;;5042967;28;20033;-70
2022/06/16 06:01:56;;;;;;;0.80;0.20;;;15.50;99.90;;;;;;5046255;28;20036;-70
2022/06/16 06:04:22;;;;;;;0.38;0.20;;;15.70;99.90;;;;;;5011768;28;20036;-78
2022/06/16 06:06:48;;;;;;;0.80;0.40;;;16.20;99.90;;;;;;5046921;28;20041;-77
2022/06/16 06:17:28;;;;;;;0.43;0.10;;;17.50;99.90;;;;;;5046605;28;20063;-84
2022/06/16 06:19:54;;;;;;;0.82;0.38;;;17.80;99.90;;;;;;5033452;28;20037;-76
2022/06/16 06:22:24;;;;;;;0.20;0.13;;;18.00;99.90;;;;;;5046091;28;20056;-77
2022/06/16 06:24:54;;;;;;;1.58;0.57;;;18.40;99.90;;;;;;5025366;28;20032;-76
2022/06/16 06:27:37;;;;;;;0.10;0.10;;;18.60;99.90;;;;;;5039749;28;20082;-76
2022/06/16 06:30:12;;;;;;;0.17;0.10;;;18.80;99.90;;;;;;5037341;28;20058;-75
2022/06/16 06:32:38;;;;;;;1.35;0.50;;;19.00;99.90;;;;;;5045410;28;20037;-76
2022/06/16 06:35:04;;;;;;;0.43;0.13;;;19.30;99.90;;;;;;5046236;28;20045;-73
2022/06/16 06:37:30;;;;;;;0.65;0.40;;;19.60;99.90;;;;;;5030311;28;20029;-73
2022/06/16 06:39:56;;;;;;;0.45;0.38;;;19.40;99.90;;;;;;5040905;28;20129;-71
2022/06/16 06:42:22;;;;;;;0.10;0.10;;;19.70;99.90;;;;;;5044177;28;20049;-75
2022/06/16 06:44:49;;;;;;;1.38;1.13;;;19.80;99.90;;;;;;5046438;28;20040;-70
2022/06/16 06:47:20;;;;;;;0.00;0.00;;;20.40;99.90;;;;;;5046384;28;20040;-70
2022/06/16 06:49:46;;;;;;;0.50;0.50;;;20.70;99.90;;;;;;5041600;28;20032;-71
2022/06/16 06:52:13;;;;;;;0.10;0.10;;;20.90;99.90;;;;;;5038603;28;20486;-71
2022/06/16 06:54:39;;;;;;;0.10;0.10;;;21.10;99.90;;;;;;5039919;28;20026;-71
2022/06/16 06:57:05;;;;;;;0.28;0.10;;;21.20;99.90;;;;;;5038061;28;20055;-71
2022/06/16 06:59:31;;;;;;;0.10;0.10;;;21.10;99.90;;;;;;5038864;28;20060;-71
2022/06/16 07:01:57;;;;;;;0.00;0.00;;;21.70;99.90;;;;;;5038964;28;20109;-72
2022/06/16 07:04:23;;;;;;;0.45;0.15;;;22.00;99.80;;;;;;5040886;28;20033;-72
2022/06/16 07:06:49;;;;;;;0.00;0.00;;;22.10;98.40;;;;;;5027446;28;20079;-72
2022/06/16 07:09:19;;;;;;;0.10;0.10;;;22.00;95.90;;;;;;5041365;28;20052;-73
2022/06/16 07:11:45;;;;;;;0.00;0.00;;;22.10;79.00;;;;;;5041727;28;20045;-72
2022/06/16 07:14:11;;;;;;;0.00;0.00;;;22.00;82.60;;;;;;5037840;28;20514;-72
2022/06/16 07:16:37;;;;;;;0.00;0.00;;;22.00;76.50;;;;;;5038463;28;20029;-72
2022/06/16 07:19:03;;;;;;;0.03;0.03;;;21.90;70.70;;;;;;5038627;28;20540;-73
2022/06/16 07:21:29;;;;;;;0.10;0.10;;;22.20;74.60;;;;;;5033632;28;20033;-73
2022/06/16 07:23:55;;;;;;;0.00;0.00;;;22.00;67.50;;;;;;5038926;28;20110;-72
2022/06/16 07:26:22;;;;;;;0.10;0.10;;;22.10;63.50;;;;;;5038298;28;20018;-73
2022/06/16 07:28:48;;;;;;;0.00;0.00;;;22.50;64.40;;;;;;5050747;28;20053;-72
2022/06/16 07:31:14;;;;;;;0.00;0.00;;;22.60;71.50;;;;;;5057809;28;20029;-72
2022/06/16 07:33:40;;;;;;;0.00;0.00;;;22.50;68.80;;;;;;5047081;28;20041;-74
2022/06/16 07:36:07;;;;;;;0.17;0.10;;;23.40;78.50;;;;;;5038774;28;20021;-73
2022/06/16 07:38:33;;;;;;;0.00;0.00;;;23.10;62.90;;;;;;5042882;28;20171;-73
2022/06/16 07:43:58;;;;;;;0.00;0.00;;;23.00;62.00;;;;;;5027087;28;20569;-73
2022/06/16 07:46:24;;;;;;;0.00;0.00;;;23.00;56.90;;;;;;5046358;28;20029;-73
2022/06/16 07:48:51;;;;;;;0.00;0.00;;;23.00;58.60;;;;;;5024703;28;20036;-73
2022/06/16 07:51:17;;;;;;;0.10;0.10;;;23.00;57.30;;;;;;5042066;28;20028;-73
2022/06/16 07:53:43;;;;;;;0.22;0.10;;;23.80;63.60;;;;;;5030448;28;20042;-73
2022/06/16 07:56:10;;;;;;;0.00;0.00;;;23.60;59.20;;;;;;5040404;28;20040;-73
2022/06/16 07:58:35;;;;;;;0.00;0.00;;;24.00;60.90;;;;;;5009523;28;20033;-73
2022/06/16 08:01:04;;;;;;;0.10;0.10;;;23.20;54.90;;;;;;5039422;28;20037;-73
2022/06/16 08:03:30;;;;;;;0.00;0.00;;;23.50;59.60;;;;;;5023970;28;20068;-73
2022/06/16 08:05:57;;;;;;;0.35;0.17;;;23.50;59.60;;;;;;5039475;28;20021;-73
2022/06/16 08:08:24;;;;;;;0.00;0.00;;;24.10;66.30;;;;;;5041411;28;20052;-73
2022/06/16 08:10:53;;;;;;;0.10;0.10;;;24.10;59.20;;;;;;5044600;28;20029;-73
2022/06/16 08:13:21;;;;;;;0.43;0.20;;;24.20;57.30;;;;;;5035594;28;20045;-74
2022/06/16 08:15:49;;;;;;;0.00;0.00;;;23.60;54.80;;;;;;5023341;28;20041;-73
2022/06/16 08:18:17;;;;;;;0.00;0.00;;;24.30;57.00;;;;;;5039184;28;20033;-73
2022/06/16 08:20:44;;;;;;;0.20;0.10;;;24.20;58.30;;;;;;5038803;28;20021;-73
2022/06/16 08:23:10;;;;;;;0.20;0.20;;;24.30;57.90;;;;;;5035185;28;20106;-73
2022/06/16 08:25:36;;;;;;;0.10;0.10;;;24.50;55.40;;;;;;5040817;28;20093;-72
2022/06/16 08:28:03;;;;;;;0.10;0.10;;;24.70;54.80;;;;;;5020363;28;20438;-72
2022/06/16 08:30:30;;;;;;;0.10;0.10;;;25.30;57.50;;;;;;5025557;28;20025;-72
2022/06/16 08:32:57;;;;;;;0.00;0.00;;;25.50;55.90;;;;;;5037050;28;20045;-71
2022/06/16 08:35:23;;;;;;;0.00;0.00;;;25.20;52.70;;;;;;5046562;28;20037;-71
2022/06/16 08:37:49;;;;;;;0.00;0.00;;;25.50;53.20;;;;;;5044951;28;20037;-72
2022/06/16 08:40:16;;;;;;;0.20;0.15;;;24.90;50.70;;;;;;5035436;28;20092;-71
2022/06/16 08:43:00;;;;;;;0.22;0.10;;;24.60;52.30;;;;;;5049311;28;20052;-71
2022/06/16 08:45:56;;;;;;;0.00;0.00;;;24.50;51.70;;;;;;5042224;28;20029;-71
2022/06/16 08:48:38;;;;;;;0.10;0.10;;;24.90;53.50;;;;;;5056610;28;20045;-71
2022/06/16 08:51:18;;;;;;;0.00;0.00;;;24.70;52.00;;;;;;5038085;28;20029;-71
2022/06/16 08:54:02;;;;;;;0.00;0.00;;;25.10;53.90;;;;;;5044214;28;20044;-72
2022/06/16 08:56:52;;;;;;;0.28;0.13;;;24.90;52.60;;;;;;5039073;28;20033;-71
2022/06/16 08:59:37;;;;;;;0.55;0.40;;;25.50;53.20;;;;;;5050334;28;20037;-71
2022/06/16 09:02:18;;;;;;;0.00;0.00;;;25.50;51.00;;;;;;5049007;28;20044;-71
2022/06/16 09:04:51;;;;;;;0.05;0.05;;;25.40;53.90;;;;;;5049046;28;20021;-72
2022/06/16 09:07:32;;;;;;;0.20;0.10;;;25.70;52.00;;;;;;5029689;28;20036;-72
2022/06/16 09:10:27;;;;;;;;;;;25.60;51.70;;;;;;5042757;28;20092;-72
2022/06/16 09:13:21;;;;;;;0.00;0.00;;;25.50;51.00;;;;;;5018108;28;20125;-72
2022/06/16 09:16:11;;;;;;;0.00;0.00;;;26.20;53.80;;;;;;5041356;28;20022;-72
2022/06/16 09:19:06;;;;;;;0.10;0.10;;;26.60;52.90;;;;;;5036157;28;20026;-72
2022/06/16 09:22:09;;;;;;;0.10;0.10;;;26.90;52.40;;;;;;5056949;28;20065;-72
2022/06/16 09:24:35;;;;;;;0.10;0.10;;;26.60;50.50;;;;;;5059721;28;20550;-74
2022/06/16 09:27:11;;;;;;;0.00;0.00;;;25.70;51.30;;;;;;5051679;28;20076;-73
2022/06/16 09:30:04;;;;;;;0.10;0.10;;;26.20;52.20;;;;;;5043846;28;20183;-73
2022/06/16 09:32:50;;;;;;;0.00;0.00;;;25.30;50.50;;;;;;5038841;28;20060;-72
2022/06/16 09:35:32;;;;;;;0.00;0.00;;;25.80;52.80;;;;;;5048637;28;20029;-73
2022/06/16 09:38:10;;;;;;;0.10;0.10;;;25.90;53.60;;;;;;5042207;28;20466;-73
2022/06/16 09:40:46;;;;;;;0.00;0.00;;;26.40;53.80;;;;;;5040166;28;20493;-73
2022/06/16 09:43:22;;;;;;;0.00;0.00;;;26.20;54.00;;;;;;5052852;28;20033;-73
2022/06/16 09:45:58;;;;;;;0.00;0.00;;;26.10;50.30;;;;;;5044672;28;20104;-74
2022/06/16 09:48:35;;;;;;;0.00;0.00;;;25.70;52.20;;;;;;5038934;28;20052;-75
2022/06/16 09:51:07;;;;;;;0.00;0.00;;;26.50;51.00;;;;;;5044475;28;20021;-73
2022/06/16 09:53:47;;;;;;;0.10;0.10;;;26.60;51.90;;;;;;5055290;28;20064;-73
2022/06/16 09:56:24;;;;;;;0.00;0.00;;;27.10;52.60;;;;;;5055263;28;20693;-75
2022/06/16 09:59:06;;;;;;;0.05;0.05;;;27.00;52.20;;;;;;5043342;28;20393;-74
2022/06/16 10:01:40;;;;;;;0.20;0.15;;;27.10;52.50;;;;;;5043487;28;20452;-74
2022/06/16 10:04:08;;;;;;;0.20;0.10;;;27.20;52.60;;;;;;5049905;28;20055;-74
2022/06/16 10:06:53;;;;;;;0.00;0.00;;;27.00;51.50;;;;;;5030533;28;20101;-74
2022/06/16 10:09:27;;;;;;;0.00;0.00;;;26.70;51.10;;;;;;5045250;28;20030;-74
2022/06/16 10:12:13;;;;;;;0.00;0.00;;;26.80;50.90;;;;;;5047981;28;20021;-74
2022/06/16 10:14:52;;;;;;;0.00;0.00;;;27.40;53.00;;;;;;5041068;28;20025;-75
2022/06/16 10:17:21;;;;;;;0.47;0.10;;;27.80;51.60;;;;;;5040166;28;20087;-74
2022/06/16 10:19:47;;;;;;;0.00;0.00;;;27.10;49.00;;;;;;5043336;28;20037;-75
2022/06/16 10:22:19;;;;;;;0.00;0.00;;;27.70;50.50;;;;;;5048930;28;20045;-76
2022/06/16 10:24:50;;;;;;;0.00;0.00;;;28.20;50.70;;;;;;5050032;28;20056;-75
2022/06/16 10:27:18;;;;;;;0.10;0.00;;;27.80;48.40;;;;;;5042743;28;20037;-75
2022/06/16 10:29:56;;;;;;;0.17;0.00;;;28.40;48.50;;;;;;5050892;28;20108;-76
2022/06/16 10:32:42;;;;;;;0.00;0.00;;;28.30;48.10;;;;;;5041941;28;20148;-75
2022/06/16 10:35:16;;;;;;;0.32;0.10;;;27.70;48.30;;;;;;5057985;28;20036;-74
2022/06/16 10:37:44;;;;;;;0.20;0.17;;;28.50;49.20;;;;;;5038791;28;20033;-76
2022/06/16 10:40:18;;;;;;;0.20;0.20;;;28.20;46.40;;;;;;5027281;28;20039;-77
2022/06/16 10:42:58;;;;;;;0.08;0.08;;;28.90;49.20;;;;;;5038164;28;20021;-72
2022/06/16 10:45:26;;;;;;;0.00;0.00;;;27.90;45.80;;;;;;5039481;28;20499;-71
2022/06/16 10:48:02;;;;;;;0.10;0.10;;;28.30;46.00;;;;;;5038381;28;20021;-75
2022/06/16 10:50:35;;;;;;;0.00;0.00;;;29.10;48.30;;;;;;5055882;28;20059;-76
2022/06/16 10:53:05;;;;;;;0.10;0.10;;;28.00;47.60;;;;;;5041024;28;20037;-75
2022/06/16 10:55:43;;;;;;;0.00;0.00;;;28.60;49.00;;;;;;5046830;28;20035;-74
2022/06/16 10:58:18;;;;;;;0.10;0.10;;;28.70;48.80;;;;;;5045434;28;20031;-76
2022/06/16 11:01:20;;;;;;;0.10;0.10;;;29.90;47.90;;;;;;5046704;28;20021;-75
2022/06/16 11:03:49;;;;;;;0.00;0.00;;;29.70;45.40;;;;;;5055360;28;20045;-75
2022/06/16 11:06:18;;;;;;;0.00;0.00;;;29.60;44.20;;;;;;5049289;28;20021;-76
2022/06/16 11:09:00;;;;;;;0.00;0.00;;;29.80;46.50;;;;;;5044395;28;20081;-75
2022/06/16 11:11:52;;;;;;;0.00;0.00;;;30.00;44.80;;;;;;5047533;28;20029;-75
2022/06/16 11:14:39;;;;;;;0.10;0.10;;;28.90;43.70;;;;;;5036710;28;20029;-73
2022/06/16 11:17:42;;;;;;;0.10;0.10;;;30.00;45.40;;;;;;5039914;28;20094;-75
2022/06/16 11:20:10;;;;;;;0.10;0.10;;;28.70;42.50;;;;;;5046353;28;20047;-75
2022/06/16 11:22:41;;;;;;;0.20;0.10;;;29.10;45.90;;;;;;5045959;28;20049;-75
2022/06/16 11:25:16;;;;;;;0.10;0.10;;;29.10;44.70;;;;;;5039759;28;20064;-75
2022/06/16 11:27:50;;;;;;;0.10;0.10;;;29.30;46.90;;;;;;5038104;28;20136;-75
2022/06/16 11:30:33;;;;;;;0.00;0.00;;;29.70;45.80;;;;;;5030623;28;20025;-75
2022/06/16 11:32:59;;;;;;;0.00;0.00;;;29.40;45.60;;;;;;5054975;28;20067;-74
2022/06/16 11:35:46;;;;;;;0.10;0.10;;;29.20;43.90;;;;;;5044341;28;20021;-75
2022/06/16 11:38:33;;;;;;;0.10;0.10;;;29.60;45.50;;;;;;5039872;28;20115;-75
2022/06/16 11:41:07;;;;;;;0.25;0.22;;;29.10;45.20;;;;;;5036738;28;20587;-75
2022/06/16 11:44:00;;;;;;;0.10;0.10;;;29.40;46.30;;;;;;5042089;28;20406;-77
2022/06/16 11:46:41;;;;;;;0.10;0.10;;;29.60;44.60;;;;;;5041393;28;20029;-76
2022/06/16 11:49:12;;;;;;;0.10;0.10;;;29.10;44.40;;;;;;5040148;28;20013;-73
2022/06/16 11:51:41;;;;;;;0.30;0.20;;;29.00;43.40;;;;;;5042269;28;20049;-73
2022/06/16 11:54:25;;;;;;;0.00;0.00;;;28.80;45.20;;;;;;5045860;28;20017;-73
2022/06/16 11:57:16;;;;;;;0.10;0.10;;;28.80;46.80;;;;;;5044162;28;20032;-74
2022/06/16 12:00:04;;;;;;;0.00;0.00;;;27.60;45.30;;;;;;5037830;28;20025;-75
2022/06/16 12:02:57;;;;;;;2.53;0.40;;;28.70;46.20;;;;;;5041975;28;20045;-75
2022/06/16 12:05:35;;;;;;;0.13;0.13;;;29.00;48.90;;;;;;5040114;28;20595;-75
2022/06/16 12:08:25;;;;;;;0.10;0.10;;;28.50;48.90;;;;;;5048648;28;20580;-75
2022/06/16 12:11:14;;;;;;;0.88;0.52;;;27.50;46.00;;;;;;5050545;28;20511;-75
2022/06/16 12:13:49;;;;;;;0.28;0.10;;;27.30;48.20;;;;;;5048989;28;20047;-75
2022/06/16 12:16:31;;;;;;;0.10;0.10;;;27.30;48.10;;;;;;5048512;28;20132;-74
2022/06/16 12:19:20;;;;;;;0.00;0.00;;;27.90;49.00;;;;;;5051578;28;20037;-75
2022/06/16 12:21:52;;;;;;;0.10;0.10;;;27.80;46.30;;;;;;5046480;28;20098;-74
2022/06/16 12:24:30;;;;;;;0.00;0.00;;;27.50;47.50;;;;;;5052066;28;20081;-75
2022/06/16 12:27:05;;;;;;;0.00;0.00;;;27.30;48.90;;;;;;5051341;28;20021;-74
2022/06/16 12:29:33;;;;;;;0.00;0.00;;;26.90;49.00;;;;;;5049975;28;20528;-75
2022/06/16 12:32:20;;;;;;;0.00;0.00;;;27.10;48.40;;;;;;5053753;28;20056;-74
2022/06/16 12:35:20;;;;;;;0.20;0.10;;;26.70;51.20;;;;;;5046509;28;20216;-74
2022/06/16 12:37:54;;;;;;;0.00;0.00;;;27.00;50.40;;;;;;5052608;28;20079;-74
2022/06/16 12:40:29;;;;;;;0.00;0.00;;;27.50;49.50;;;;;;5046361;28;20033;-74
2022/06/16 12:43:01;;;;;;;0.00;0.00;;;27.60;48.70;;;;;;5046261;28;20056;-74
2022/06/16 12:45:38;;;;;;;0.00;0.00;;;28.10;48.90;;;;;;5046623;28;20033;-75
2022/06/16 12:48:31;;;;;;;0.05;0.05;;;28.30;49.20;;;;;;5048346;28;20056;-75
2022/06/16 12:51:00;;;;;;;0.17;0.10;;;27.90;46.50;;;;;;5032078;28;20033;-75
2022/06/16 12:53:33;;;;;;;0.03;0.03;;;28.80;49.10;;;;;;5049653;28;20048;-75
2022/06/16 12:56:05;;;;;;;0.00;0.00;;;29.00;47.20;;;;;;5043341;28;20064;-75
2022/06/16 12:58:34;;;;;;;0.20;0.20;;;29.00;45.10;;;;;;5048867;28;20427;-75
2022/06/16 13:01:05;;;;;;;0.25;0.20;;;28.30;46.20;;;;;;5046885;28;20036;-75
2022/06/16 13:03:58;;;;;;;0.10;0.10;;;27.80;45.70;;;;;;5051278;28;20055;-74
2022/06/16 13:06:25;;;;;;;0.45;0.28;;;28.10;45.00;;;;;;5040861;28;20399;-75
2022/06/16 13:08:55;;;;;;;0.10;0.10;;;27.50;49.60;;;;;;5054710;28;20025;-75
2022/06/16 13:11:28;;;;;;;0.00;0.00;;;27.20;49.50;;;;;;5046583;28;20024;-75
2022/06/16 13:14:14;;;;;;;0.10;0.10;;;26.50;48.60;;;;;;5040522;28;20036;-75
2022/06/16 13:16:42;;;;;;;0.00;0.00;;;26.60;50.40;;;;;;5050216;28;20074;-74
2022/06/16 13:19:19;;;;;;;0.00;0.00;;;26.30;50.00;;;;;;5042709;28;20335;-75
2022/06/16 13:21:52;;;;;;;0.10;0.10;;;26.00;50.90;;;;;;5045372;28;20018;-75
2022/06/16 13:24:37;;;;;;;0.10;0.10;;;25.70;51.00;;;;;;5063011;28;20119;-74
2022/06/16 13:27:14;;;;;;;0.00;0.00;;;25.90;51.90;;;;;;5046879;28;20325;-75
2022/06/16 13:29:52;;;;;;;0.10;0.05;;;25.60;50.20;;;;;;5046706;28;20461;-76
2022/06/16 13:32:39;;;;;;;0.00;0.00;;;25.30;51.70;;;;;;5050224;28;20105;-75
2022/06/16 13:35:13;;;;;;;0.25;0.17;;;25.50;51.60;;;;;;5043605;28;20089;-74
2022/06/16 13:37:42;;;;;;;0.00;0.00;;;25.60;52.70;;;;;;5052982;28;20037;-74